sensor_id;sensor_type;location;lat;lon;timestamp;P1;durP1;ratioP1;P2;durP2;ratioP2
14116;SDS011;7137;51.436;6.544;2023-04-03T00:01:32;6.60;;;5.27;;
14116;SDS011;7137;51.436;6.544;2023-04-03T00:04:35;9.40;;;5.27;;
14116;SDS011;7137;51.436;6.544;2023-04-03T00:07:38;8.57;;;5.73;;
14116;SDS011;7137;51.436;6.544;2023-04-03T00:10:39;6.10;;;4.90;;
14116;SDS011;7137;51.436;6.544;2023-04-03T00:13:41;7.47;;;5.07;;
14116;SDS011;7137;51.436;6.544;2023-04-03T00:16:43;7.30;;;5.30;;
14116;SDS011;7137;51.436;6.544;2023-04-03T00:19:45;7.33;;;5.17;;
14116;SDS011;7137;51.436;6.544;2023-04-03T00:22:49;7.67;;;5.27;;
14116;SDS011;7137;51.436;6.544;2023-04-03T00:25:50;7.10;;;5.10;;
14116;SDS011;7137;51.436;6.544;2023-04-03T00:28:52;7.33;;;5.23;;
14116;SDS011;7137;51.436;6.544;2023-04-03T00:31:53;8.10;;;5.60;;
14116;SDS011;7137;51.436;6.544;2023-04-03T00:34:55;7.50;;;5.37;;
14116;SDS011;7137;51.436;6.544;2023-04-03T00:37:58;7.97;;;5.70;;
14116;SDS011;7137;51.436;6.544;2023-04-03T00:41:00;7.63;;;5.70;;
14116;SDS011;7137;51.436;6.544;2023-04-03T00:47:21;7.63;;;5.73;;
14116;SDS011;7137;51.436;6.544;2023-04-03T00:50:24;9.83;;;5.80;;
14116;SDS011;7137;51.436;6.544;2023-04-03T00:53:28;7.63;;;5.60;;
14116;SDS011;7137;51.436;6.544;2023-04-03T00:56:34;7.83;;;5.63;;
14116;SDS011;7137;51.436;6.544;2023-04-03T00:59:38;8.00;;;6.07;;
14116;SDS011;7137;51.436;6.544;2023-04-03T01:02:44;8.57;;;5.60;;
14116;SDS011;7137;51.436;6.544;2023-04-03T01:05:45;8.23;;;5.80;;
14116;SDS011;7137;51.436;6.544;2023-04-03T01:08:48;7.83;;;6.00;;
14116;SDS011;7137;51.436;6.544;2023-04-03T01:11:51;8.67;;;6.23;;
14116;SDS011;7137;51.436;6.544;2023-04-03T01:14:54;7.10;;;5.73;;
14116;SDS011;7137;51.436;6.544;2023-04-03T01:17:57;9.30;;;6.50;;
14116;SDS011;7137;51.436;6.544;2023-04-03T01:24:46;10.27;;;6.90;;
14116;SDS011;7137;51.436;6.544;2023-04-03T01:27:48;9.20;;;6.47;;
14116;SDS011;7137;51.436;6.544;2023-04-03T01:30:50;9.13;;;6.70;;
14116;SDS011;7137;51.436;6.544;2023-04-03T01:34:02;8.80;;;6.50;;
14116;SDS011;7137;51.436;6.544;2023-04-03T01:37:04;8.10;;;5.97;;
14116;SDS011;7137;51.436;6.544;2023-04-03T01:40:06;7.63;;;5.60;;
14116;SDS011;7137;51.436;6.544;2023-04-03T01:43:08;8.50;;;6.10;;
14116;SDS011;7137;51.436;6.544;2023-04-03T01:46:10;8.07;;;6.13;;
14116;SDS011;7137;51.436;6.544;2023-04-03T01:49:13;8.70;;;6.30;;
14116;SDS011;7137;51.436;6.544;2023-04-03T01:52:15;8.87;;;6.97;;
14116;SDS011;7137;51.436;6.544;2023-04-03T01:55:17;9.30;;;6.53;;
14116;SDS011;7137;51.436;6.544;2023-04-03T01:58:18;9.23;;;6.33;;
14116;SDS011;7137;51.436;6.544;2023-04-03T02:01:20;9.17;;;6.47;;
14116;SDS011;7137;51.436;6.544;2023-04-03T02:04:23;10.63;;;6.60;;
14116;SDS011;7137;51.436;6.544;2023-04-03T02:07:24;8.67;;;6.57;;
14116;SDS011;7137;51.436;6.544;2023-04-03T02:10:26;9.73;;;6.23;;
14116;SDS011;7137;51.436;6.544;2023-04-03T02:13:27;8.57;;;5.50;;
14116;SDS011;7137;51.436;6.544;2023-04-03T02:19:57;10.40;;;5.30;;
14116;SDS011;7137;51.436;6.544;2023-04-03T02:22:58;10.03;;;5.83;;
14116;SDS011;7137;51.436;6.544;2023-04-03T02:26:02;7.53;;;5.07;;
14116;SDS011;7137;51.436;6.544;2023-04-03T02:29:06;8.80;;;5.33;;
14116;SDS011;7137;51.436;6.544;2023-04-03T02:32:07;8.33;;;5.00;;
14116;SDS011;7137;51.436;6.544;2023-04-03T02:35:10;8.03;;;4.57;;
14116;SDS011;7137;51.436;6.544;2023-04-03T02:38:12;9.47;;;4.50;;
14116;SDS011;7137;51.436;6.544;2023-04-03T02:41:13;9.37;;;4.40;;
14116;SDS011;7137;51.436;6.544;2023-04-03T02:44:15;7.93;;;3.87;;
14116;SDS011;7137;51.436;6.544;2023-04-03T02:47:16;7.87;;;3.90;;
14116;SDS011;7137;51.436;6.544;2023-04-03T02:50:19;7.17;;;3.73;;
14116;SDS011;7137;51.436;6.544;2023-04-03T02:53:20;6.00;;;2.83;;
14116;SDS011;7137;51.436;6.544;2023-04-03T02:56:22;7.17;;;3.27;;
14116;SDS011;7137;51.436;6.544;2023-04-03T02:59:24;7.57;;;3.00;;
14116;SDS011;7137;51.436;6.544;2023-04-03T03:02:26;6.17;;;3.17;;
14116;SDS011;7137;51.436;6.544;2023-04-03T03:05:29;6.93;;;2.93;;
14116;SDS011;7137;51.436;6.544;2023-04-03T03:08:31;7.80;;;2.80;;
14116;SDS011;7137;51.436;6.544;2023-04-03T03:11:33;7.93;;;2.80;;
14116;SDS011;7137;51.436;6.544;2023-04-03T03:14:34;7.27;;;2.77;;
14116;SDS011;7137;51.436;6.544;2023-04-03T03:17:36;6.67;;;2.33;;
14116;SDS011;7137;51.436;6.544;2023-04-03T03:20:39;7.20;;;2.67;;
14116;SDS011;7137;51.436;6.544;2023-04-03T03:23:40;5.93;;;2.70;;
14116;SDS011;7137;51.436;6.544;2023-04-03T03:26:42;5.67;;;2.30;;
14116;SDS011;7137;51.436;6.544;2023-04-03T03:29:43;5.57;;;2.30;;
14116;SDS011;7137;51.436;6.544;2023-04-03T03:32:45;7.73;;;2.43;;
14116;SDS011;7137;51.436;6.544;2023-04-03T03:35:47;6.07;;;2.10;;
14116;SDS011;7137;51.436;6.544;2023-04-03T03:38:49;8.60;;;2.20;;
14116;SDS011;7137;51.436;6.544;2023-04-03T03:41:51;4.60;;;1.83;;
14116;SDS011;7137;51.436;6.544;2023-04-03T03:44:53;7.50;;;2.20;;
14116;SDS011;7137;51.436;6.544;2023-04-03T03:47:54;6.00;;;1.80;;
14116;SDS011;7137;51.436;6.544;2023-04-03T03:50:57;5.40;;;1.97;;
14116;SDS011;7137;51.436;6.544;2023-04-03T03:53:59;6.57;;;2.10;;
14116;SDS011;7137;51.436;6.544;2023-04-03T03:57:00;5.30;;;2.13;;
14116;SDS011;7137;51.436;6.544;2023-04-03T04:00:02;6.60;;;2.10;;
14116;SDS011;7137;51.436;6.544;2023-04-03T04:03:05;6.33;;;1.77;;
14116;SDS011;7137;51.436;6.544;2023-04-03T04:06:08;5.50;;;2.20;;
14116;SDS011;7137;51.436;6.544;2023-04-03T04:09:09;4.93;;;1.73;;
14116;SDS011;7137;51.436;6.544;2023-04-03T04:12:11;7.40;;;2.10;;
14116;SDS011;7137;51.436;6.544;2023-04-03T04:15:12;5.97;;;2.00;;
14116;SDS011;7137;51.436;6.544;2023-04-03T04:18:14;7.13;;;2.30;;
14116;SDS011;7137;51.436;6.544;2023-04-03T04:21:18;5.63;;;2.10;;
14116;SDS011;7137;51.436;6.544;2023-04-03T04:24:19;5.77;;;1.93;;
14116;SDS011;7137;51.436;6.544;2023-04-03T04:27:22;7.60;;;2.00;;
14116;SDS011;7137;51.436;6.544;2023-04-03T04:30:24;6.30;;;2.07;;
14116;SDS011;7137;51.436;6.544;2023-04-03T04:33:26;8.60;;;2.53;;
14116;SDS011;7137;51.436;6.544;2023-04-03T04:36:29;6.53;;;2.00;;
14116;SDS011;7137;51.436;6.544;2023-04-03T04:39:30;5.93;;;2.40;;
14116;SDS011;7137;51.436;6.544;2023-04-03T04:42:32;8.67;;;2.80;;
14116;SDS011;7137;51.436;6.544;2023-04-03T04:45:33;7.03;;;2.50;;
14116;SDS011;7137;51.436;6.544;2023-04-03T04:48:35;5.83;;;2.70;;
14116;SDS011;7137;51.436;6.544;2023-04-03T04:51:38;6.40;;;2.67;;
14116;SDS011;7137;51.436;6.544;2023-04-03T04:54:40;7.70;;;2.70;;
14116;SDS011;7137;51.436;6.544;2023-04-03T04:57:41;6.13;;;2.50;;
14116;SDS011;7137;51.436;6.544;2023-04-03T05:00:43;7.10;;;2.40;;
14116;SDS011;7137;51.436;6.544;2023-04-03T05:03:44;6.40;;;2.53;;
14116;SDS011;7137;51.436;6.544;2023-04-03T05:06:49;9.27;;;2.73;;
14116;SDS011;7137;51.436;6.544;2023-04-03T05:09:50;8.00;;;3.10;;
14116;SDS011;7137;51.436;6.544;2023-04-03T05:12:51;7.73;;;3.00;;
14116;SDS011;7137;51.436;6.544;2023-04-03T05:15:53;10.20;;;3.40;;
14116;SDS011;7137;51.436;6.544;2023-04-03T05:18:54;7.77;;;3.03;;
14116;SDS011;7137;51.436;6.544;2023-04-03T05:21:57;9.17;;;3.50;;
14116;SDS011;7137;51.436;6.544;2023-04-03T05:24:59;8.67;;;2.87;;
14116;SDS011;7137;51.436;6.544;2023-04-03T05:28:00;9.63;;;3.27;;
14116;SDS011;7137;51.436;6.544;2023-04-03T05:31:02;7.27;;;3.23;;
14116;SDS011;7137;51.436;6.544;2023-04-03T05:34:03;8.20;;;3.70;;
14116;SDS011;7137;51.436;6.544;2023-04-03T05:37:07;7.20;;;3.40;;
14116;SDS011;7137;51.436;6.544;2023-04-03T05:40:08;9.77;;;3.10;;
14116;SDS011;7137;51.436;6.544;2023-04-03T05:43:10;8.03;;;3.00;;
14116;SDS011;7137;51.436;6.544;2023-04-03T05:46:12;7.63;;;3.10;;
14116;SDS011;7137;51.436;6.544;2023-04-03T05:49:15;6.63;;;2.60;;
14116;SDS011;7137;51.436;6.544;2023-04-03T05:52:20;7.70;;;2.90;;
14116;SDS011;7137;51.436;6.544;2023-04-03T05:55:24;6.37;;;2.70;;
14116;SDS011;7137;51.436;6.544;2023-04-03T05:58:25;7.40;;;2.70;;
14116;SDS011;7137;51.436;6.544;2023-04-03T06:01:27;6.63;;;2.50;;
14116;SDS011;7137;51.436;6.544;2023-04-03T06:04:28;8.07;;;2.53;;
14116;SDS011;7137;51.436;6.544;2023-04-03T06:07:31;5.07;;;2.23;;
14116;SDS011;7137;51.436;6.544;2023-04-03T06:10:33;6.30;;;2.00;;
14116;SDS011;7137;51.436;6.544;2023-04-03T06:13:34;5.27;;;2.13;;
14116;SDS011;7137;51.436;6.544;2023-04-03T06:16:36;6.37;;;2.30;;
14116;SDS011;7137;51.436;6.544;2023-04-03T06:19:39;9.50;;;2.73;;
14116;SDS011;7137;51.436;6.544;2023-04-03T06:22:42;7.57;;;2.30;;
14116;SDS011;7137;51.436;6.544;2023-04-03T06:25:43;5.53;;;2.43;;
14116;SDS011;7137;51.436;6.544;2023-04-03T06:28:45;6.53;;;2.60;;
14116;SDS011;7137;51.436;6.544;2023-04-03T06:31:46;8.43;;;2.30;;
14116;SDS011;7137;51.436;6.544;2023-04-03T06:34:48;4.63;;;2.03;;
14116;SDS011;7137;51.436;6.544;2023-04-03T06:37:52;8.57;;;2.63;;
14116;SDS011;7137;51.436;6.544;2023-04-03T06:40:53;7.13;;;2.67;;
14116;SDS011;7137;51.436;6.544;2023-04-03T06:43:55;8.57;;;2.73;;
14116;SDS011;7137;51.436;6.544;2023-04-03T06:46:58;6.07;;;2.17;;
14116;SDS011;7137;51.436;6.544;2023-04-03T06:49:59;7.03;;;2.40;;
14116;SDS011;7137;51.436;6.544;2023-04-03T06:53:02;7.27;;;2.70;;
14116;SDS011;7137;51.436;6.544;2023-04-03T06:56:04;8.23;;;2.67;;
14116;SDS011;7137;51.436;6.544;2023-04-03T06:59:06;6.20;;;2.43;;
14116;SDS011;7137;51.436;6.544;2023-04-03T07:02:10;7.60;;;2.53;;
14116;SDS011;7137;51.436;6.544;2023-04-03T07:05:13;7.77;;;2.77;;
14116;SDS011;7137;51.436;6.544;2023-04-03T07:08:16;7.30;;;2.50;;
14116;SDS011;7137;51.436;6.544;2023-04-03T07:11:18;8.00;;;2.60;;
14116;SDS011;7137;51.436;6.544;2023-04-03T07:14:20;6.30;;;2.20;;
14116;SDS011;7137;51.436;6.544;2023-04-03T07:17:22;5.30;;;1.93;;
14116;SDS011;7137;51.436;6.544;2023-04-03T07:20:23;7.00;;;2.33;;
14116;SDS011;7137;51.436;6.544;2023-04-03T07:23:26;7.63;;;2.57;;
14116;SDS011;7137;51.436;6.544;2023-04-03T07:26:28;6.73;;;2.23;;
14116;SDS011;7137;51.436;6.544;2023-04-03T07:29:30;5.47;;;2.37;;
14116;SDS011;7137;51.436;6.544;2023-04-03T07:32:31;5.13;;;2.20;;
14116;SDS011;7137;51.436;6.544;2023-04-03T07:35:33;7.30;;;2.40;;
14116;SDS011;7137;51.436;6.544;2023-04-03T07:38:36;7.07;;;2.30;;
14116;SDS011;7137;51.436;6.544;2023-04-03T07:41:38;8.10;;;2.33;;
14116;SDS011;7137;51.436;6.544;2023-04-03T07:44:39;6.03;;;2.53;;
14116;SDS011;7137;51.436;6.544;2023-04-03T07:47:41;7.20;;;2.50;;
14116;SDS011;7137;51.436;6.544;2023-04-03T07:50:43;5.83;;;2.60;;
14116;SDS011;7137;51.436;6.544;2023-04-03T07:53:46;7.97;;;2.57;;
14116;SDS011;7137;51.436;6.544;2023-04-03T07:56:48;7.90;;;2.40;;
14116;SDS011;7137;51.436;6.544;2023-04-03T07:59:50;7.47;;;2.80;;
14116;SDS011;7137;51.436;6.544;2023-04-03T08:02:51;8.63;;;3.00;;
14116;SDS011;7137;51.436;6.544;2023-04-03T08:05:53;7.30;;;3.37;;
14116;SDS011;7137;51.436;6.544;2023-04-03T08:08:55;9.90;;;2.93;;
14116;SDS011;7137;51.436;6.544;2023-04-03T08:11:57;7.47;;;2.93;;
14116;SDS011;7137;51.436;6.544;2023-04-03T08:14:59;9.23;;;2.83;;
14116;SDS011;7137;51.436;6.544;2023-04-03T08:18:01;6.27;;;2.80;;
14116;SDS011;7137;51.436;6.544;2023-04-03T08:21:05;7.97;;;2.40;;
14116;SDS011;7137;51.436;6.544;2023-04-03T08:24:08;6.27;;;2.00;;
14116;SDS011;7137;51.436;6.544;2023-04-03T08:27:10;6.37;;;1.93;;
14116;SDS011;7137;51.436;6.544;2023-04-03T08:30:12;5.93;;;2.00;;
14116;SDS011;7137;51.436;6.544;2023-04-03T08:33:14;4.53;;;1.97;;
14116;SDS011;7137;51.436;6.544;2023-04-03T08:36:17;5.47;;;1.97;;
14116;SDS011;7137;51.436;6.544;2023-04-03T08:39:22;7.57;;;1.80;;
14116;SDS011;7137;51.436;6.544;2023-04-03T08:42:36;4.67;;;1.50;;
14116;SDS011;7137;51.436;6.544;2023-04-03T08:45:45;4.10;;;1.53;;
14116;SDS011;7137;51.436;6.544;2023-04-03T08:48:51;6.10;;;1.50;;
14116;SDS011;7137;51.436;6.544;2023-04-03T08:51:54;4.57;;;1.60;;
14116;SDS011;7137;51.436;6.544;2023-04-03T08:55:00;4.50;;;1.57;;
14116;SDS011;7137;51.436;6.544;2023-04-03T08:58:04;6.20;;;1.90;;
14116;SDS011;7137;51.436;6.544;2023-04-03T09:01:10;5.23;;;2.00;;
14116;SDS011;7137;51.436;6.544;2023-04-03T09:04:20;6.53;;;1.80;;
14116;SDS011;7137;51.436;6.544;2023-04-03T09:07:22;5.33;;;1.33;;
14116;SDS011;7137;51.436;6.544;2023-04-03T09:10:42;3.67;;;1.47;;
14116;SDS011;7137;51.436;6.544;2023-04-03T09:13:45;3.20;;;1.27;;
14116;SDS011;7137;51.436;6.544;2023-04-03T09:16:52;2.80;;;1.20;;
14116;SDS011;7137;51.436;6.544;2023-04-03T09:19:58;3.00;;;1.10;;
14116;SDS011;7137;51.436;6.544;2023-04-03T09:23:13;4.53;;;1.30;;
14116;SDS011;7137;51.436;6.544;2023-04-03T09:26:23;3.20;;;1.20;;
14116;SDS011;7137;51.436;6.544;2023-04-03T09:29:27;4.67;;;1.57;;
14116;SDS011;7137;51.436;6.544;2023-04-03T09:32:29;3.47;;;1.23;;
14116;SDS011;7137;51.436;6.544;2023-04-03T09:35:33;4.07;;;1.47;;
14116;SDS011;7137;51.436;6.544;2023-04-03T09:38:37;3.83;;;1.27;;
14116;SDS011;7137;51.436;6.544;2023-04-03T09:41:40;3.97;;;1.10;;
14116;SDS011;7137;51.436;6.544;2023-04-03T09:44:41;3.47;;;1.20;;
14116;SDS011;7137;51.436;6.544;2023-04-03T09:51:17;3.47;;;1.20;;
14116;SDS011;7137;51.436;6.544;2023-04-03T09:54:33;3.47;;;1.23;;
14116;SDS011;7137;51.436;6.544;2023-04-03T09:57:42;4.07;;;1.53;;
14116;SDS011;7137;51.436;6.544;2023-04-03T10:00:44;4.17;;;1.20;;
14116;SDS011;7137;51.436;6.544;2023-04-03T10:04:06;3.10;;;1.10;;
14116;SDS011;7137;51.436;6.544;2023-04-03T10:07:26;3.37;;;1.20;;
14116;SDS011;7137;51.436;6.544;2023-04-03T10:10:33;2.63;;;1.10;;
14116;SDS011;7137;51.436;6.544;2023-04-03T10:13:37;6.50;;;1.10;;
14116;SDS011;7137;51.436;6.544;2023-04-03T10:16:52;3.60;;;1.10;;
14116;SDS011;7137;51.436;6.544;2023-04-03T10:20:01;4.00;;;1.30;;
14116;SDS011;7137;51.436;6.544;2023-04-03T10:23:14;2.97;;;1.03;;
14116;SDS011;7137;51.436;6.544;2023-04-03T10:26:23;2.43;;;1.00;;
14116;SDS011;7137;51.436;6.544;2023-04-03T10:29:38;3.20;;;1.00;;
14116;SDS011;7137;51.436;6.544;2023-04-03T10:32:45;2.03;;;0.80;;
14116;SDS011;7137;51.436;6.544;2023-04-03T10:36:02;2.53;;;0.80;;
14116;SDS011;7137;51.436;6.544;2023-04-03T10:39:14;3.70;;;1.10;;
14116;SDS011;7137;51.436;6.544;2023-04-03T10:42:28;4.33;;;1.30;;
14116;SDS011;7137;51.436;6.544;2023-04-03T10:45:48;2.60;;;1.00;;
14116;SDS011;7137;51.436;6.544;2023-04-03T10:49:06;1.97;;;0.87;;
14116;SDS011;7137;51.436;6.544;2023-04-03T10:52:17;2.83;;;1.30;;
14116;SDS011;7137;51.436;6.544;2023-04-03T10:55:24;3.90;;;0.93;;
14116;SDS011;7137;51.436;6.544;2023-04-03T10:58:36;3.13;;;0.97;;
14116;SDS011;7137;51.436;6.544;2023-04-03T11:01:42;3.23;;;1.00;;
14116;SDS011;7137;51.436;6.544;2023-04-03T11:04:46;2.80;;;1.10;;
14116;SDS011;7137;51.436;6.544;2023-04-03T11:07:52;2.63;;;0.90;;
14116;SDS011;7137;51.436;6.544;2023-04-03T11:10:58;2.80;;;0.97;;
14116;SDS011;7137;51.436;6.544;2023-04-03T11:14:02;2.73;;;1.00;;
14116;SDS011;7137;51.436;6.544;2023-04-03T11:17:11;2.63;;;1.00;;
14116;SDS011;7137;51.436;6.544;2023-04-03T11:20:21;3.47;;;1.20;;
14116;SDS011;7137;51.436;6.544;2023-04-03T11:23:28;3.23;;;1.10;;
14116;SDS011;7137;51.436;6.544;2023-04-03T11:26:35;3.53;;;1.20;;
14116;SDS011;7137;51.436;6.544;2023-04-03T11:29:40;4.50;;;1.20;;
14116;SDS011;7137;51.436;6.544;2023-04-03T11:32:54;3.60;;;1.30;;
14116;SDS011;7137;51.436;6.544;2023-04-03T11:36:19;4.20;;;1.30;;
14116;SDS011;7137;51.436;6.544;2023-04-03T11:39:26;4.17;;;1.30;;
14116;SDS011;7137;51.436;6.544;2023-04-03T11:42:33;4.33;;;1.27;;
14116;SDS011;7137;51.436;6.544;2023-04-03T11:45:38;3.67;;;1.40;;
14116;SDS011;7137;51.436;6.544;2023-04-03T11:48:53;4.57;;;1.47;;
14116;SDS011;7137;51.436;6.544;2023-04-03T11:51:56;3.07;;;1.27;;
14116;SDS011;7137;51.436;6.544;2023-04-03T11:54:58;3.80;;;1.30;;
14116;SDS011;7137;51.436;6.544;2023-04-03T11:58:03;3.13;;;1.20;;
14116;SDS011;7137;51.436;6.544;2023-04-03T12:01:37;7.80;;;1.20;;
14116;SDS011;7137;51.436;6.544;2023-04-03T12:04:46;3.33;;;1.20;;
14116;SDS011;7137;51.436;6.544;2023-04-03T12:08:27;4.20;;;1.20;;
14116;SDS011;7137;51.436;6.544;2023-04-03T12:11:31;3.63;;;1.40;;
14116;SDS011;7137;51.436;6.544;2023-04-03T12:14:35;6.80;;;1.43;;
14116;SDS011;7137;51.436;6.544;2023-04-03T12:17:37;4.63;;;1.50;;
14116;SDS011;7137;51.436;6.544;2023-04-03T12:20:53;3.83;;;1.23;;
14116;SDS011;7137;51.436;6.544;2023-04-03T12:23:59;4.00;;;1.30;;
14116;SDS011;7137;51.436;6.544;2023-04-03T12:27:04;4.23;;;1.40;;
14116;SDS011;7137;51.436;6.544;2023-04-03T12:30:19;3.70;;;1.20;;
14116;SDS011;7137;51.436;6.544;2023-04-03T12:33:27;4.00;;;1.50;;
14116;SDS011;7137;51.436;6.544;2023-04-03T12:36:41;3.83;;;1.50;;
14116;SDS011;7137;51.436;6.544;2023-04-03T12:39:52;2.67;;;1.20;;
14116;SDS011;7137;51.436;6.544;2023-04-03T12:46:33;3.20;;;1.50;;
14116;SDS011;7137;51.436;6.544;2023-04-03T12:49:39;4.17;;;1.50;;
14116;SDS011;7137;51.436;6.544;2023-04-03T12:52:45;3.90;;;1.20;;
14116;SDS011;7137;51.436;6.544;2023-04-03T12:55:53;4.00;;;1.20;;
14116;SDS011;7137;51.436;6.544;2023-04-03T12:58:55;5.73;;;0.90;;
14116;SDS011;7137;51.436;6.544;2023-04-03T13:02:17;7.77;;;1.27;;
14116;SDS011;7137;51.436;6.544;2023-04-03T13:05:23;4.10;;;1.20;;
14116;SDS011;7137;51.436;6.544;2023-04-03T13:08:27;3.17;;;1.27;;
14116;SDS011;7137;51.436;6.544;2023-04-03T13:11:32;3.37;;;1.20;;
14116;SDS011;7137;51.436;6.544;2023-04-03T13:14:37;4.20;;;1.30;;
14116;SDS011;7137;51.436;6.544;2023-04-03T13:17:39;3.60;;;1.23;;
14116;SDS011;7137;51.436;6.544;2023-04-03T13:20:42;3.33;;;1.30;;
14116;SDS011;7137;51.436;6.544;2023-04-03T13:23:47;2.57;;;1.10;;
14116;SDS011;7137;51.436;6.544;2023-04-03T13:26:51;3.57;;;1.17;;
14116;SDS011;7137;51.436;6.544;2023-04-03T13:29:54;3.60;;;1.47;;
14116;SDS011;7137;51.436;6.544;2023-04-03T13:33:02;4.03;;;1.40;;
14116;SDS011;7137;51.436;6.544;2023-04-03T13:36:06;4.60;;;1.40;;
14116;SDS011;7137;51.436;6.544;2023-04-03T13:39:22;2.73;;;1.30;;
14116;SDS011;7137;51.436;6.544;2023-04-03T13:42:25;4.23;;;1.40;;
14116;SDS011;7137;51.436;6.544;2023-04-03T13:45:30;4.37;;;1.30;;
14116;SDS011;7137;51.436;6.544;2023-04-03T13:48:37;4.77;;;1.20;;
14116;SDS011;7137;51.436;6.544;2023-04-03T13:51:40;2.50;;;1.07;;
14116;SDS011;7137;51.436;6.544;2023-04-03T13:54:42;3.63;;;1.40;;
14116;SDS011;7137;51.436;6.544;2023-04-03T13:57:50;5.03;;;1.33;;
14116;SDS011;7137;51.436;6.544;2023-04-03T14:00:54;5.13;;;1.53;;
14116;SDS011;7137;51.436;6.544;2023-04-03T14:03:57;3.20;;;1.40;;
14116;SDS011;7137;51.436;6.544;2023-04-03T14:07:00;3.87;;;1.30;;
14116;SDS011;7137;51.436;6.544;2023-04-03T14:10:04;4.47;;;1.30;;
14116;SDS011;7137;51.436;6.544;2023-04-03T14:13:06;4.27;;;1.27;;
14116;SDS011;7137;51.436;6.544;2023-04-03T14:16:14;3.73;;;1.33;;
14116;SDS011;7137;51.436;6.544;2023-04-03T14:19:19;2.43;;;1.20;;
14116;SDS011;7137;51.436;6.544;2023-04-03T14:22:24;2.40;;;1.10;;
14116;SDS011;7137;51.436;6.544;2023-04-03T14:25:28;3.07;;;1.13;;
14116;SDS011;7137;51.436;6.544;2023-04-03T14:28:30;3.50;;;1.40;;
14116;SDS011;7137;51.436;6.544;2023-04-03T14:31:32;3.33;;;1.33;;
14116;SDS011;7137;51.436;6.544;2023-04-03T14:34:34;3.47;;;1.20;;
14116;SDS011;7137;51.436;6.544;2023-04-03T14:37:36;3.17;;;1.10;;
14116;SDS011;7137;51.436;6.544;2023-04-03T14:40:39;4.27;;;1.40;;
14116;SDS011;7137;51.436;6.544;2023-04-03T14:43:41;5.33;;;1.40;;
14116;SDS011;7137;51.436;6.544;2023-04-03T14:46:43;3.63;;;1.67;;
14116;SDS011;7137;51.436;6.544;2023-04-03T14:49:46;2.80;;;1.37;;
14116;SDS011;7137;51.436;6.544;2023-04-03T14:52:49;4.83;;;1.57;;
14116;SDS011;7137;51.436;6.544;2023-04-03T14:55:54;3.67;;;1.17;;
14116;SDS011;7137;51.436;6.544;2023-04-03T14:58:57;4.27;;;1.40;;
14116;SDS011;7137;51.436;6.544;2023-04-03T15:02:00;4.30;;;0.90;;
14116;SDS011;7137;51.436;6.544;2023-04-03T15:05:03;3.97;;;1.23;;
14116;SDS011;7137;51.436;6.544;2023-04-03T15:08:08;3.77;;;1.30;;
14116;SDS011;7137;51.436;6.544;2023-04-03T15:11:19;3.77;;;1.20;;
14116;SDS011;7137;51.436;6.544;2023-04-03T15:14:21;4.23;;;1.60;;
14116;SDS011;7137;51.436;6.544;2023-04-03T15:17:23;4.00;;;1.50;;
14116;SDS011;7137;51.436;6.544;2023-04-03T15:20:26;4.47;;;1.30;;
14116;SDS011;7137;51.436;6.544;2023-04-03T15:23:30;5.87;;;1.40;;
14116;SDS011;7137;51.436;6.544;2023-04-03T15:26:33;3.23;;;1.30;;
14116;SDS011;7137;51.436;6.544;2023-04-03T15:29:35;5.47;;;1.23;;
14116;SDS011;7137;51.436;6.544;2023-04-03T15:32:37;5.07;;;1.43;;
14116;SDS011;7137;51.436;6.544;2023-04-03T15:35:39;3.77;;;1.60;;
14116;SDS011;7137;51.436;6.544;2023-04-03T15:38:40;3.07;;;1.30;;
14116;SDS011;7137;51.436;6.544;2023-04-03T15:41:45;4.77;;;1.43;;
14116;SDS011;7137;51.436;6.544;2023-04-03T15:44:47;5.50;;;1.60;;
14116;SDS011;7137;51.436;6.544;2023-04-03T15:47:48;4.17;;;1.20;;
14116;SDS011;7137;51.436;6.544;2023-04-03T15:50:51;4.53;;;1.63;;
14116;SDS011;7137;51.436;6.544;2023-04-03T15:53:52;3.33;;;1.10;;
14116;SDS011;7137;51.436;6.544;2023-04-03T15:56:55;6.40;;;1.40;;
14116;SDS011;7137;51.436;6.544;2023-04-03T15:59:57;3.97;;;1.33;;
14116;SDS011;7137;51.436;6.544;2023-04-03T16:02:59;3.63;;;1.27;;
14116;SDS011;7137;51.436;6.544;2023-04-03T16:06:05;5.00;;;1.57;;
14116;SDS011;7137;51.436;6.544;2023-04-03T16:09:06;4.03;;;1.37;;
14116;SDS011;7137;51.436;6.544;2023-04-03T16:12:10;5.63;;;1.50;;
14116;SDS011;7137;51.436;6.544;2023-04-03T16:15:11;4.93;;;1.40;;
14116;SDS011;7137;51.436;6.544;2023-04-03T16:18:13;4.67;;;1.40;;
14116;SDS011;7137;51.436;6.544;2023-04-03T16:21:15;5.07;;;1.40;;
14116;SDS011;7137;51.436;6.544;2023-04-03T16:24:18;4.27;;;1.40;;
14116;SDS011;7137;51.436;6.544;2023-04-03T16:27:21;3.60;;;1.30;;
14116;SDS011;7137;51.436;6.544;2023-04-03T16:30:27;4.73;;;1.50;;
14116;SDS011;7137;51.436;6.544;2023-04-03T16:33:29;4.83;;;1.80;;
14116;SDS011;7137;51.436;6.544;2023-04-03T16:36:31;3.97;;;1.60;;
14116;SDS011;7137;51.436;6.544;2023-04-03T16:39:33;5.10;;;1.37;;
14116;SDS011;7137;51.436;6.544;2023-04-03T16:42:36;4.47;;;1.57;;
14116;SDS011;7137;51.436;6.544;2023-04-03T16:45:37;5.57;;;1.50;;
14116;SDS011;7137;51.436;6.544;2023-04-03T16:48:39;4.67;;;1.50;;
14116;SDS011;7137;51.436;6.544;2023-04-03T16:51:40;4.77;;;1.70;;
14116;SDS011;7137;51.436;6.544;2023-04-03T16:54:42;6.40;;;1.70;;
14116;SDS011;7137;51.436;6.544;2023-04-03T16:57:45;4.60;;;1.50;;
14116;SDS011;7137;51.436;6.544;2023-04-03T17:00:46;3.70;;;1.50;;
14116;SDS011;7137;51.436;6.544;2023-04-03T17:03:48;5.87;;;1.70;;
14116;SDS011;7137;51.436;6.544;2023-04-03T17:06:50;5.00;;;1.40;;
14116;SDS011;7137;51.436;6.544;2023-04-03T17:09:51;3.73;;;1.40;;
14116;SDS011;7137;51.436;6.544;2023-04-03T17:12:55;3.60;;;1.40;;
14116;SDS011;7137;51.436;6.544;2023-04-03T17:15:57;4.00;;;1.60;;
14116;SDS011;7137;51.436;6.544;2023-04-03T17:18:59;4.17;;;1.57;;
14116;SDS011;7137;51.436;6.544;2023-04-03T17:22:01;4.67;;;1.60;;
14116;SDS011;7137;51.436;6.544;2023-04-03T17:25:02;3.60;;;1.57;;
14116;SDS011;7137;51.436;6.544;2023-04-03T17:28:05;4.63;;;1.80;;
14116;SDS011;7137;51.436;6.544;2023-04-03T17:31:07;4.00;;;1.50;;
14116;SDS011;7137;51.436;6.544;2023-04-03T17:34:09;4.80;;;1.57;;
14116;SDS011;7137;51.436;6.544;2023-04-03T17:37:12;4.17;;;1.60;;
14116;SDS011;7137;51.436;6.544;2023-04-03T17:40:13;4.77;;;1.73;;
14116;SDS011;7137;51.436;6.544;2023-04-03T17:43:18;4.53;;;1.60;;
14116;SDS011;7137;51.436;6.544;2023-04-03T17:46:19;3.93;;;1.50;;
14116;SDS011;7137;51.436;6.544;2023-04-03T17:49:21;3.80;;;1.60;;
14116;SDS011;7137;51.436;6.544;2023-04-03T17:52:24;3.13;;;1.50;;
14116;SDS011;7137;51.436;6.544;2023-04-03T17:55:27;4.43;;;1.67;;
14116;SDS011;7137;51.436;6.544;2023-04-03T17:58:30;3.73;;;1.50;;
14116;SDS011;7137;51.436;6.544;2023-04-03T18:01:32;5.60;;;1.83;;
14116;SDS011;7137;51.436;6.544;2023-04-03T18:04:35;4.63;;;1.90;;
14116;SDS011;7137;51.436;6.544;2023-04-03T18:07:36;5.73;;;1.80;;
14116;SDS011;7137;51.436;6.544;2023-04-03T18:10:40;6.03;;;1.80;;
14116;SDS011;7137;51.436;6.544;2023-04-03T18:13:43;4.63;;;1.90;;
14116;SDS011;7137;51.436;6.544;2023-04-03T18:16:46;4.63;;;1.67;;
14116;SDS011;7137;51.436;6.544;2023-04-03T18:19:47;4.77;;;1.67;;
14116;SDS011;7137;51.436;6.544;2023-04-03T18:22:51;5.63;;;1.70;;
14116;SDS011;7137;51.436;6.544;2023-04-03T18:25:53;5.47;;;1.80;;
14116;SDS011;7137;51.436;6.544;2023-04-03T18:28:57;4.30;;;1.43;;
14116;SDS011;7137;51.436;6.544;2023-04-03T18:32:01;5.00;;;1.77;;
14116;SDS011;7137;51.436;6.544;2023-04-03T18:35:04;5.47;;;1.73;;
14116;SDS011;7137;51.436;6.544;2023-04-03T18:38:08;4.97;;;1.80;;
14116;SDS011;7137;51.436;6.544;2023-04-03T18:41:09;5.10;;;1.90;;
14116;SDS011;7137;51.436;6.544;2023-04-03T18:44:13;8.63;;;2.37;;
14116;SDS011;7137;51.436;6.544;2023-04-03T18:47:18;6.27;;;2.20;;
14116;SDS011;7137;51.436;6.544;2023-04-03T18:50:19;5.33;;;1.77;;
14116;SDS011;7137;51.436;6.544;2023-04-03T18:53:21;4.73;;;1.87;;
14116;SDS011;7137;51.436;6.544;2023-04-03T18:56:23;4.67;;;1.53;;
14116;SDS011;7137;51.436;6.544;2023-04-03T18:59:27;4.33;;;1.50;;
14116;SDS011;7137;51.436;6.544;2023-04-03T19:02:30;5.33;;;1.83;;